sensor_id;sensor_type;location;lat;lon;timestamp;P1;durP1;ratioP1;P2;durP2;ratioP2
49540;SDS011;35432;43.566;1.398;2023-03-01T00:01:07;28.52;;;12.50;;
49540;SDS011;35432;43.566;1.398;2023-03-01T00:03:35;26.73;;;11.02;;
49540;SDS011;35432;43.566;1.398;2023-03-01T00:06:01;28.70;;;12.50;;
49540;SDS011;35432;43.566;1.398;2023-03-01T00:08:28;23.77;;;10.95;;
49540;SDS011;35432;43.566;1.398;2023-03-01T00:11:02;24.27;;;10.68;;
49540;SDS011;35432;43.566;1.398;2023-03-01T00:13:32;22.83;;;10.53;;
49540;SDS011;35432;43.566;1.398;2023-03-01T00:15:58;23.98;;;10.90;;
49540;SDS011;35432;43.566;1.398;2023-03-01T00:18:24;27.83;;;10.80;;
49540;SDS011;35432;43.566;1.398;2023-03-01T00:20:52;27.75;;;10.43;;
49540;SDS011;35432;43.566;1.398;2023-03-01T00:23:19;24.10;;;10.48;;
49540;SDS011;35432;43.566;1.398;2023-03-01T00:25:44;31.85;;;12.75;;
49540;SDS011;35432;43.566;1.398;2023-03-01T00:28:10;30.57;;;12.57;;
49540;SDS011;35432;43.566;1.398;2023-03-01T00:30:35;40.50;;;16.37;;
49540;SDS011;35432;43.566;1.398;2023-03-01T00:33:00;37.33;;;14.83;;
49540;SDS011;35432;43.566;1.398;2023-03-01T00:35:26;33.47;;;14.10;;
49540;SDS011;35432;43.566;1.398;2023-03-01T00:37:51;31.35;;;12.68;;
49540;SDS011;35432;43.566;1.398;2023-03-01T00:40:23;30.60;;;12.93;;
49540;SDS011;35432;43.566;1.398;2023-03-01T00:42:49;29.80;;;13.45;;
49540;SDS011;35432;43.566;1.398;2023-03-01T00:45:14;27.50;;;12.35;;
49540;SDS011;35432;43.566;1.398;2023-03-01T00:47:40;30.60;;;11.53;;
49540;SDS011;35432;43.566;1.398;2023-03-01T00:50:05;25.70;;;11.37;;
49540;SDS011;35432;43.566;1.398;2023-03-01T00:52:31;24.75;;;11.82;;
49540;SDS011;35432;43.566;1.398;2023-03-01T00:54:56;29.60;;;11.73;;
49540;SDS011;35432;43.566;1.398;2023-03-01T00:57:22;27.65;;;12.77;;
49540;SDS011;35432;43.566;1.398;2023-03-01T00:59:48;30.13;;;14.57;;
49540;SDS011;35432;43.566;1.398;2023-03-01T01:02:13;28.33;;;13.20;;
49540;SDS011;35432;43.566;1.398;2023-03-01T01:04:39;30.40;;;12.57;;
49540;SDS011;35432;43.566;1.398;2023-03-01T01:07:04;33.37;;;13.23;;
49540;SDS011;35432;43.566;1.398;2023-03-01T01:09:30;41.88;;;16.00;;
49540;SDS011;35432;43.566;1.398;2023-03-01T01:11:56;30.00;;;12.20;;
49540;SDS011;35432;43.566;1.398;2023-03-01T01:14:21;27.85;;;12.35;;
49540;SDS011;35432;43.566;1.398;2023-03-01T01:16:47;24.10;;;10.30;;
49540;SDS011;35432;43.566;1.398;2023-03-01T01:19:12;26.10;;;10.37;;
49540;SDS011;35432;43.566;1.398;2023-03-01T01:21:38;24.13;;;10.85;;
49540;SDS011;35432;43.566;1.398;2023-03-01T01:24:04;26.60;;;11.32;;
49540;SDS011;35432;43.566;1.398;2023-03-01T01:26:31;20.10;;;9.37;;
49540;SDS011;35432;43.566;1.398;2023-03-01T01:28:57;20.13;;;9.52;;
49540;SDS011;35432;43.566;1.398;2023-03-01T01:31:24;19.50;;;9.05;;
49540;SDS011;35432;43.566;1.398;2023-03-01T01:33:51;21.02;;;9.35;;
49540;SDS011;35432;43.566;1.398;2023-03-01T01:36:17;19.70;;;9.57;;
49540;SDS011;35432;43.566;1.398;2023-03-01T01:38:43;25.02;;;10.38;;
49540;SDS011;35432;43.566;1.398;2023-03-01T01:41:09;19.73;;;9.30;;
49540;SDS011;35432;43.566;1.398;2023-03-01T01:43:40;21.55;;;9.70;;
49540;SDS011;35432;43.566;1.398;2023-03-01T01:48:46;20.35;;;8.65;;
49540;SDS011;35432;43.566;1.398;2023-03-01T01:51:18;19.15;;;8.65;;
49540;SDS011;35432;43.566;1.398;2023-03-01T01:53:47;19.23;;;8.93;;
49540;SDS011;35432;43.566;1.398;2023-03-01T01:56:18;20.10;;;9.43;;
49540;SDS011;35432;43.566;1.398;2023-03-01T01:58:45;23.80;;;10.23;;
49540;SDS011;35432;43.566;1.398;2023-03-01T02:01:12;24.00;;;9.88;;
49540;SDS011;35432;43.566;1.398;2023-03-01T02:03:38;22.87;;;9.43;;
49540;SDS011;35432;43.566;1.398;2023-03-01T02:06:41;22.85;;;9.35;;
49540;SDS011;35432;43.566;1.398;2023-03-01T02:09:03;23.15;;;10.18;;
49540;SDS011;35432;43.566;1.398;2023-03-01T02:11:33;19.35;;;9.82;;
49540;SDS011;35432;43.566;1.398;2023-03-01T02:13:59;24.23;;;9.50;;
49540;SDS011;35432;43.566;1.398;2023-03-01T02:16:25;23.00;;;10.40;;
49540;SDS011;35432;43.566;1.398;2023-03-01T02:18:51;24.15;;;11.07;;
49540;SDS011;35432;43.566;1.398;2023-03-01T02:23:59;21.80;;;10.40;;
49540;SDS011;35432;43.566;1.398;2023-03-01T02:26:47;23.17;;;10.00;;
49540;SDS011;35432;43.566;1.398;2023-03-01T02:29:15;21.88;;;9.80;;
49540;SDS011;35432;43.566;1.398;2023-03-01T02:31:40;21.40;;;9.93;;
49540;SDS011;35432;43.566;1.398;2023-03-01T02:34:29;23.37;;;9.63;;
49540;SDS011;35432;43.566;1.398;2023-03-01T02:36:57;21.95;;;9.90;;
49540;SDS011;35432;43.566;1.398;2023-03-01T02:39:48;25.08;;;10.45;;
49540;SDS011;35432;43.566;1.398;2023-03-01T02:42:17;29.55;;;11.02;;
49540;SDS011;35432;43.566;1.398;2023-03-01T02:44:48;30.73;;;11.55;;
49540;SDS011;35432;43.566;1.398;2023-03-01T02:47:14;26.20;;;11.50;;
49540;SDS011;35432;43.566;1.398;2023-03-01T02:49:40;26.05;;;10.93;;
49540;SDS011;35432;43.566;1.398;2023-03-01T02:55:12;27.88;;;11.60;;
49540;SDS011;35432;43.566;1.398;2023-03-01T02:57:42;26.73;;;11.60;;
49540;SDS011;35432;43.566;1.398;2023-03-01T03:00:09;27.05;;;11.65;;
49540;SDS011;35432;43.566;1.398;2023-03-01T03:02:44;27.40;;;11.90;;
49540;SDS011;35432;43.566;1.398;2023-03-01T03:05:12;25.13;;;10.68;;
49540;SDS011;35432;43.566;1.398;2023-03-01T03:07:43;28.00;;;11.82;;
49540;SDS011;35432;43.566;1.398;2023-03-01T03:10:11;23.13;;;10.80;;
49540;SDS011;35432;43.566;1.398;2023-03-01T03:12:44;26.20;;;11.48;;
49540;SDS011;35432;43.566;1.398;2023-03-01T03:15:14;29.38;;;11.50;;
49540;SDS011;35432;43.566;1.398;2023-03-01T03:17:40;31.60;;;11.93;;
49540;SDS011;35432;43.566;1.398;2023-03-01T03:20:07;25.13;;;10.60;;
49540;SDS011;35432;43.566;1.398;2023-03-01T03:22:37;27.45;;;12.05;;
49540;SDS011;35432;43.566;1.398;2023-03-01T03:25:07;26.38;;;10.57;;
49540;SDS011;35432;43.566;1.398;2023-03-01T03:27:36;25.90;;;11.03;;
49540;SDS011;35432;43.566;1.398;2023-03-01T03:30:06;24.85;;;10.75;;
49540;SDS011;35432;43.566;1.398;2023-03-01T03:32:37;25.85;;;10.18;;
49540;SDS011;35432;43.566;1.398;2023-03-01T03:35:04;22.45;;;10.63;;
49540;SDS011;35432;43.566;1.398;2023-03-01T03:37:37;27.95;;;10.90;;
49540;SDS011;35432;43.566;1.398;2023-03-01T03:40:22;23.93;;;9.77;;
49540;SDS011;35432;43.566;1.398;2023-03-01T03:42:47;26.95;;;10.55;;
49540;SDS011;35432;43.566;1.398;2023-03-01T03:45:13;24.00;;;10.00;;
49540;SDS011;35432;43.566;1.398;2023-03-01T03:47:39;26.25;;;10.55;;
49540;SDS011;35432;43.566;1.398;2023-03-01T03:50:04;22.90;;;10.27;;
49540;SDS011;35432;43.566;1.398;2023-03-01T03:52:30;27.95;;;10.30;;
49540;SDS011;35432;43.566;1.398;2023-03-01T03:54:55;26.90;;;11.27;;
49540;SDS011;35432;43.566;1.398;2023-03-01T03:57:21;25.83;;;10.40;;
49540;SDS011;35432;43.566;1.398;2023-03-01T03:59:46;22.57;;;9.23;;
49540;SDS011;35432;43.566;1.398;2023-03-01T04:02:11;23.47;;;9.50;;
49540;SDS011;35432;43.566;1.398;2023-03-01T04:04:37;23.05;;;9.82;;
49540;SDS011;35432;43.566;1.398;2023-03-01T04:07:02;23.37;;;9.47;;
49540;SDS011;35432;43.566;1.398;2023-03-01T04:09:27;22.90;;;9.60;;
49540;SDS011;35432;43.566;1.398;2023-03-01T04:11:55;25.27;;;9.95;;
49540;SDS011;35432;43.566;1.398;2023-03-01T04:14:20;22.80;;;9.97;;
49540;SDS011;35432;43.566;1.398;2023-03-01T04:16:46;23.83;;;10.17;;
49540;SDS011;35432;43.566;1.398;2023-03-01T04:19:11;25.80;;;10.40;;
49540;SDS011;35432;43.566;1.398;2023-03-01T04:21:37;24.87;;;10.23;;
49540;SDS011;35432;43.566;1.398;2023-03-01T04:24:03;25.37;;;10.57;;
49540;SDS011;35432;43.566;1.398;2023-03-01T04:26:29;26.23;;;10.50;;
49540;SDS011;35432;43.566;1.398;2023-03-01T04:28:54;24.47;;;9.93;;
49540;SDS011;35432;43.566;1.398;2023-03-01T04:31:19;24.95;;;10.77;;
49540;SDS011;35432;43.566;1.398;2023-03-01T04:33:50;24.38;;;10.00;;
49540;SDS011;35432;43.566;1.398;2023-03-01T04:36:17;23.27;;;9.93;;
49540;SDS011;35432;43.566;1.398;2023-03-01T04:38:44;29.13;;;11.40;;
49540;SDS011;35432;43.566;1.398;2023-03-01T04:41:14;23.60;;;10.27;;
49540;SDS011;35432;43.566;1.398;2023-03-01T04:43:41;29.70;;;11.40;;
49540;SDS011;35432;43.566;1.398;2023-03-01T04:46:08;28.17;;;12.10;;
49540;SDS011;35432;43.566;1.398;2023-03-01T04:48:36;28.35;;;11.75;;
49540;SDS011;35432;43.566;1.398;2023-03-01T04:51:03;28.33;;;12.25;;
49540;SDS011;35432;43.566;1.398;2023-03-01T04:53:29;30.60;;;12.07;;
49540;SDS011;35432;43.566;1.398;2023-03-01T04:55:55;36.77;;;13.10;;
49540;SDS011;35432;43.566;1.398;2023-03-01T04:58:25;28.50;;;11.88;;
49540;SDS011;35432;43.566;1.398;2023-03-01T05:00:52;28.02;;;11.18;;
49540;SDS011;35432;43.566;1.398;2023-03-01T05:03:17;27.90;;;11.73;;
49540;SDS011;35432;43.566;1.398;2023-03-01T05:05:44;33.30;;;12.53;;
49540;SDS011;35432;43.566;1.398;2023-03-01T05:08:11;28.17;;;12.65;;
49540;SDS011;35432;43.566;1.398;2023-03-01T05:10:48;32.15;;;12.18;;
49540;SDS011;35432;43.566;1.398;2023-03-01T05:13:16;31.35;;;11.85;;
49540;SDS011;35432;43.566;1.398;2023-03-01T05:15:53;33.72;;;12.32;;
49540;SDS011;35432;43.566;1.398;2023-03-01T05:18:19;33.83;;;12.00;;
49540;SDS011;35432;43.566;1.398;2023-03-01T05:20:45;29.55;;;12.00;;
49540;SDS011;35432;43.566;1.398;2023-03-01T05:23:11;32.77;;;11.50;;
49540;SDS011;35432;43.566;1.398;2023-03-01T05:25:36;30.33;;;11.82;;
49540;SDS011;35432;43.566;1.398;2023-03-01T05:28:05;26.30;;;11.40;;
49540;SDS011;35432;43.566;1.398;2023-03-01T05:30:32;31.73;;;11.77;;
49540;SDS011;35432;43.566;1.398;2023-03-01T05:32:59;29.00;;;12.77;;
49540;SDS011;35432;43.566;1.398;2023-03-01T05:35:25;37.53;;;13.82;;
49540;SDS011;35432;43.566;1.398;2023-03-01T05:37:51;32.72;;;12.38;;
49540;SDS011;35432;43.566;1.398;2023-03-01T05:40:20;34.30;;;13.50;;
49540;SDS011;35432;43.566;1.398;2023-03-01T05:42:48;32.03;;;13.30;;
49540;SDS011;35432;43.566;1.398;2023-03-01T05:45:15;31.38;;;12.98;;
49540;SDS011;35432;43.566;1.398;2023-03-01T05:47:42;37.47;;;13.83;;
49540;SDS011;35432;43.566;1.398;2023-03-01T05:50:32;34.65;;;14.02;;
49540;SDS011;35432;43.566;1.398;2023-03-01T05:52:58;33.60;;;13.32;;
49540;SDS011;35432;43.566;1.398;2023-03-01T05:55:30;30.45;;;11.55;;
49540;SDS011;35432;43.566;1.398;2023-03-01T05:58:00;32.60;;;13.27;;
49540;SDS011;35432;43.566;1.398;2023-03-01T06:00:27;29.37;;;12.67;;
49540;SDS011;35432;43.566;1.398;2023-03-01T06:02:54;30.80;;;12.82;;
49540;SDS011;35432;43.566;1.398;2023-03-01T06:05:21;34.08;;;14.02;;
49540;SDS011;35432;43.566;1.398;2023-03-01T06:07:47;33.08;;;13.15;;
49540;SDS011;35432;43.566;1.398;2023-03-01T06:10:13;33.77;;;14.53;;
49540;SDS011;35432;43.566;1.398;2023-03-01T06:12:39;33.30;;;14.23;;
49540;SDS011;35432;43.566;1.398;2023-03-01T06:15:06;36.95;;;14.70;;
49540;SDS011;35432;43.566;1.398;2023-03-01T06:17:35;36.92;;;14.25;;
49540;SDS011;35432;43.566;1.398;2023-03-01T06:20:05;35.47;;;13.43;;
49540;SDS011;35432;43.566;1.398;2023-03-01T06:22:33;36.58;;;15.23;;
49540;SDS011;35432;43.566;1.398;2023-03-01T06:24:58;51.57;;;17.93;;
49540;SDS011;35432;43.566;1.398;2023-03-01T06:27:23;52.42;;;20.25;;
49540;SDS011;35432;43.566;1.398;2023-03-01T06:29:49;45.37;;;18.03;;
49540;SDS011;35432;43.566;1.398;2023-03-01T06:32:15;41.23;;;17.07;;
49540;SDS011;35432;43.566;1.398;2023-03-01T06:34:40;38.17;;;15.50;;
49540;SDS011;35432;43.566;1.398;2023-03-01T06:37:06;35.40;;;15.33;;
49540;SDS011;35432;43.566;1.398;2023-03-01T06:39:32;38.38;;;15.63;;
49540;SDS011;35432;43.566;1.398;2023-03-01T06:41:58;38.03;;;16.08;;
49540;SDS011;35432;43.566;1.398;2023-03-01T06:44:24;31.63;;;14.93;;
49540;SDS011;35432;43.566;1.398;2023-03-01T06:46:49;37.85;;;15.70;;
49540;SDS011;35432;43.566;1.398;2023-03-01T06:49:15;34.87;;;15.20;;
49540;SDS011;35432;43.566;1.398;2023-03-01T06:51:42;35.22;;;14.57;;
49540;SDS011;35432;43.566;1.398;2023-03-01T06:54:08;30.50;;;13.67;;
49540;SDS011;35432;43.566;1.398;2023-03-01T06:56:33;32.63;;;13.10;;
49540;SDS011;35432;43.566;1.398;2023-03-01T06:58:58;31.43;;;13.47;;
49540;SDS011;35432;43.566;1.398;2023-03-01T07:01:24;31.55;;;13.00;;
49540;SDS011;35432;43.566;1.398;2023-03-01T07:03:49;32.37;;;13.00;;
49540;SDS011;35432;43.566;1.398;2023-03-01T07:06:15;30.40;;;13.50;;
49540;SDS011;35432;43.566;1.398;2023-03-01T07:08:40;34.60;;;13.23;;
49540;SDS011;35432;43.566;1.398;2023-03-01T07:11:06;30.55;;;13.20;;
49540;SDS011;35432;43.566;1.398;2023-03-01T07:13:32;32.47;;;14.60;;
49540;SDS011;35432;43.566;1.398;2023-03-01T07:15:57;32.08;;;14.32;;
49540;SDS011;35432;43.566;1.398;2023-03-01T07:18:23;33.23;;;14.17;;
49540;SDS011;35432;43.566;1.398;2023-03-01T07:20:48;34.27;;;13.80;;
49540;SDS011;35432;43.566;1.398;2023-03-01T07:23:14;32.30;;;12.73;;
49540;SDS011;35432;43.566;1.398;2023-03-01T07:25:40;30.65;;;12.45;;
49540;SDS011;35432;43.566;1.398;2023-03-01T07:28:05;29.33;;;12.87;;
49540;SDS011;35432;43.566;1.398;2023-03-01T07:30:31;32.00;;;13.13;;
49540;SDS011;35432;43.566;1.398;2023-03-01T07:32:57;31.85;;;13.27;;
49540;SDS011;35432;43.566;1.398;2023-03-01T07:35:23;44.17;;;17.65;;
49540;SDS011;35432;43.566;1.398;2023-03-01T07:37:50;43.10;;;18.00;;
49540;SDS011;35432;43.566;1.398;2023-03-01T07:40:15;45.03;;;17.65;;
49540;SDS011;35432;43.566;1.398;2023-03-01T07:42:41;42.60;;;17.63;;
49540;SDS011;35432;43.566;1.398;2023-03-01T07:45:06;36.40;;;15.77;;
49540;SDS011;35432;43.566;1.398;2023-03-01T07:47:32;31.33;;;13.93;;
49540;SDS011;35432;43.566;1.398;2023-03-01T07:49:58;30.27;;;13.40;;
49540;SDS011;35432;43.566;1.398;2023-03-01T07:52:23;30.53;;;12.27;;
49540;SDS011;35432;43.566;1.398;2023-03-01T07:54:49;27.17;;;12.77;;
49540;SDS011;35432;43.566;1.398;2023-03-01T07:57:14;21.73;;;11.70;;
49540;SDS011;35432;43.566;1.398;2023-03-01T07:59:40;21.83;;;11.53;;
49540;SDS011;35432;43.566;1.398;2023-03-01T08:02:05;22.23;;;11.63;;
49540;SDS011;35432;43.566;1.398;2023-03-01T08:04:31;24.97;;;13.00;;
49540;SDS011;35432;43.566;1.398;2023-03-01T08:06:58;32.88;;;14.35;;
49540;SDS011;35432;43.566;1.398;2023-03-01T08:09:24;35.80;;;15.02;;
49540;SDS011;35432;43.566;1.398;2023-03-01T08:11:49;24.10;;;12.80;;
49540;SDS011;35432;43.566;1.398;2023-03-01T08:14:15;23.08;;;12.00;;
49540;SDS011;35432;43.566;1.398;2023-03-01T08:16:40;23.60;;;11.80;;
49540;SDS011;35432;43.566;1.398;2023-03-01T08:19:07;19.37;;;11.33;;
49540;SDS011;35432;43.566;1.398;2023-03-01T08:21:33;20.27;;;11.18;;
49540;SDS011;35432;43.566;1.398;2023-03-01T08:24:02;20.48;;;12.02;;
49540;SDS011;35432;43.566;1.398;2023-03-01T08:26:30;21.70;;;12.20;;
49540;SDS011;35432;43.566;1.398;2023-03-01T08:28:57;20.27;;;13.32;;
49540;SDS011;35432;43.566;1.398;2023-03-01T08:33:55;24.93;;;13.67;;
49540;SDS011;35432;43.566;1.398;2023-03-01T08:36:23;23.55;;;13.07;;
49540;SDS011;35432;43.566;1.398;2023-03-01T08:38:50;25.65;;;13.07;;
49540;SDS011;35432;43.566;1.398;2023-03-01T08:41:16;20.77;;;12.82;;
49540;SDS011;35432;43.566;1.398;2023-03-01T08:43:41;20.97;;;13.47;;
49540;SDS011;35432;43.566;1.398;2023-03-01T08:46:07;22.23;;;12.17;;
49540;SDS011;35432;43.566;1.398;2023-03-01T08:48:32;16.13;;;10.87;;
49540;SDS011;35432;43.566;1.398;2023-03-01T08:51:06;13.43;;;10.13;;
49540;SDS011;35432;43.566;1.398;2023-03-01T08:53:33;15.20;;;10.55;;
49540;SDS011;35432;43.566;1.398;2023-03-01T08:56:02;17.87;;;11.03;;
49540;SDS011;35432;43.566;1.398;2023-03-01T08:58:28;16.05;;;10.30;;
49540;SDS011;35432;43.566;1.398;2023-03-01T09:00:54;14.33;;;10.03;;
49540;SDS011;35432;43.566;1.398;2023-03-01T09:03:21;15.75;;;10.25;;
49540;SDS011;35432;43.566;1.398;2023-03-01T09:05:49;14.73;;;10.43;;
49540;SDS011;35432;43.566;1.398;2023-03-01T09:08:15;13.48;;;9.95;;
49540;SDS011;35432;43.566;1.398;2023-03-01T09:10:44;14.85;;;10.07;;
49540;SDS011;35432;43.566;1.398;2023-03-01T09:13:10;14.30;;;10.30;;
49540;SDS011;35432;43.566;1.398;2023-03-01T09:15:36;15.73;;;10.30;;
49540;SDS011;35432;43.566;1.398;2023-03-01T09:18:02;14.95;;;10.20;;
49540;SDS011;35432;43.566;1.398;2023-03-01T09:20:28;14.45;;;10.35;;
49540;SDS011;35432;43.566;1.398;2023-03-01T09:22:55;15.90;;;10.90;;
49540;SDS011;35432;43.566;1.398;2023-03-01T09:25:21;19.08;;;11.07;;
49540;SDS011;35432;43.566;1.398;2023-03-01T09:27:46;13.83;;;10.17;;
49540;SDS011;35432;43.566;1.398;2023-03-01T09:30:12;14.77;;;9.00;;
49540;SDS011;35432;43.566;1.398;2023-03-01T09:32:37;12.93;;;9.43;;
49540;SDS011;35432;43.566;1.398;2023-03-01T09:35:07;12.93;;;8.37;;
49540;SDS011;35432;43.566;1.398;2023-03-01T09:37:33;10.55;;;8.38;;
49540;SDS011;35432;43.566;1.398;2023-03-01T09:40:00;14.15;;;9.18;;
49540;SDS011;35432;43.566;1.398;2023-03-01T09:42:28;11.63;;;8.63;;
49540;SDS011;35432;43.566;1.398;2023-03-01T09:45:06;13.25;;;9.73;;
49540;SDS011;35432;43.566;1.398;2023-03-01T09:47:40;9.97;;;7.87;;
49540;SDS011;35432;43.566;1.398;2023-03-01T09:50:09;10.27;;;8.15;;
49540;SDS011;35432;43.566;1.398;2023-03-01T09:52:40;12.30;;;8.57;;
49540;SDS011;35432;43.566;1.398;2023-03-01T09:55:09;10.07;;;7.43;;
49540;SDS011;35432;43.566;1.398;2023-03-01T09:57:54;10.30;;;7.75;;
49540;SDS011;35432;43.566;1.398;2023-03-01T10:00:42;12.10;;;7.93;;
49540;SDS011;35432;43.566;1.398;2023-03-01T10:03:31;8.70;;;6.70;;
49540;SDS011;35432;43.566;1.398;2023-03-01T10:11:30;8.50;;;6.32;;
49540;SDS011;35432;43.566;1.398;2023-03-01T10:19:02;8.50;;;5.90;;
49540;SDS011;35432;43.566;1.398;2023-03-01T10:21:29;8.90;;;5.60;;
49540;SDS011;35432;43.566;1.398;2023-03-01T10:23:57;7.75;;;5.68;;
49540;SDS011;35432;43.566;1.398;2023-03-01T10:26:41;7.57;;;6.00;;
49540;SDS011;35432;43.566;1.398;2023-03-01T10:29:12;8.18;;;6.07;;
49540;SDS011;35432;43.566;1.398;2023-03-01T10:31:50;8.27;;;5.85;;
49540;SDS011;35432;43.566;1.398;2023-03-01T10:34:22;8.95;;;6.00;;
49540;SDS011;35432;43.566;1.398;2023-03-01T10:37:08;7.30;;;5.75;;
49540;SDS011;35432;43.566;1.398;2023-03-01T10:39:34;6.10;;;5.10;;
49540;SDS011;35432;43.566;1.398;2023-03-01T10:42:01;7.35;;;5.88;;
49540;SDS011;35432;43.566;1.398;2023-03-01T10:44:42;8.47;;;5.73;;
49540;SDS011;35432;43.566;1.398;2023-03-01T10:47:23;9.13;;;6.05;;
49540;SDS011;35432;43.566;1.398;2023-03-01T10:49:55;8.35;;;6.22;;
49540;SDS011;35432;43.566;1.398;2023-03-01T10:52:25;8.05;;;6.45;;
49540;SDS011;35432;43.566;1.398;2023-03-01T10:54:54;8.48;;;6.25;;
49540;SDS011;35432;43.566;1.398;2023-03-01T10:57:27;8.00;;;6.13;;
49540;SDS011;35432;43.566;1.398;2023-03-01T11:00:28;8.35;;;5.93;;
49540;SDS011;35432;43.566;1.398;2023-03-01T11:03:00;7.50;;;5.72;;
49540;SDS011;35432;43.566;1.398;2023-03-01T11:05:28;8.73;;;5.80;;
49540;SDS011;35432;43.566;1.398;2023-03-01T11:07:59;8.93;;;5.82;;
49540;SDS011;35432;43.566;1.398;2023-03-01T11:10:33;8.83;;;6.10;;
49540;SDS011;35432;43.566;1.398;2023-03-01T11:13:07;8.32;;;6.03;;
49540;SDS011;35432;43.566;1.398;2023-03-01T11:15:40;8.00;;;6.13;;
49540;SDS011;35432;43.566;1.398;2023-03-01T11:18:20;7.82;;;5.80;;
49540;SDS011;35432;43.566;1.398;2023-03-01T11:20:47;8.38;;;6.57;;
49540;SDS011;35432;43.566;1.398;2023-03-01T11:23:16;9.60;;;6.50;;
49540;SDS011;35432;43.566;1.398;2023-03-01T11:25:45;8.05;;;6.22;;
49540;SDS011;35432;43.566;1.398;2023-03-01T11:28:17;8.20;;;6.38;;
49540;SDS011;35432;43.566;1.398;2023-03-01T11:30:51;9.70;;;6.85;;
49540;SDS011;35432;43.566;1.398;2023-03-01T11:39:03;8.63;;;6.43;;
49540;SDS011;35432;43.566;1.398;2023-03-01T11:41:40;8.80;;;6.60;;
49540;SDS011;35432;43.566;1.398;2023-03-01T11:44:18;9.35;;;6.82;;
49540;SDS011;35432;43.566;1.398;2023-03-01T11:46:52;8.80;;;6.53;;
49540;SDS011;35432;43.566;1.398;2023-03-01T11:58:26;9.27;;;6.35;;
49540;SDS011;35432;43.566;1.398;2023-03-01T12:03:34;9.20;;;6.00;;
49540;SDS011;35432;43.566;1.398;2023-03-01T12:33:45;7.70;;;4.87;;
49540;SDS011;35432;43.566;1.398;2023-03-01T12:39:30;13.25;;;6.40;;
49540;SDS011;35432;43.566;1.398;2023-03-01T12:42:15;10.13;;;5.63;;
49540;SDS011;35432;43.566;1.398;2023-03-01T12:47:43;8.97;;;5.77;;
49540;SDS011;35432;43.566;1.398;2023-03-01T12:50:42;11.07;;;5.50;;
49540;SDS011;35432;43.566;1.398;2023-03-01T12:53:24;11.05;;;5.80;;
49540;SDS011;35432;43.566;1.398;2023-03-01T12:55:52;11.05;;;6.18;;
49540;SDS011;35432;43.566;1.398;2023-03-01T12:58:33;8.60;;;5.25;;
49540;SDS011;35432;43.566;1.398;2023-03-01T13:11:16;8.97;;;5.73;;
49540;SDS011;35432;43.566;1.398;2023-03-01T13:13:44;9.98;;;6.20;;
49540;SDS011;35432;43.566;1.398;2023-03-01T13:19:20;10.77;;;5.30;;
49540;SDS011;35432;43.566;1.398;2023-03-01T13:21:48;9.18;;;5.07;;
49540;SDS011;35432;43.566;1.398;2023-03-01T13:27:09;8.75;;;5.45;;
49540;SDS011;35432;43.566;1.398;2023-03-01T13:29:50;8.45;;;4.90;;
49540;SDS011;35432;43.566;1.398;2023-03-01T13:32:26;8.97;;;4.67;;
49540;SDS011;35432;43.566;1.398;2023-03-01T13:35:44;7.78;;;4.80;;
49540;SDS011;35432;43.566;1.398;2023-03-01T13:37:44;7.85;;;4.90;;
49540;SDS011;35432;43.566;1.398;2023-03-01T13:42:45;8.77;;;4.90;;
49540;SDS011;35432;43.566;1.398;2023-03-01T13:47:47;7.57;;;4.85;;
49540;SDS011;35432;43.566;1.398;2023-03-01T13:50:24;8.75;;;5.38;;
49540;SDS011;35432;43.566;1.398;2023-03-01T13:52:53;8.88;;;5.30;;
49540;SDS011;35432;43.566;1.398;2023-03-01T13:55:26;8.83;;;5.10;;
49540;SDS011;35432;43.566;1.398;2023-03-01T13:57:57;9.60;;;5.03;;
49540;SDS011;35432;43.566;1.398;2023-03-01T14:00:27;9.98;;;5.18;;
49540;SDS011;35432;43.566;1.398;2023-03-01T14:03:02;9.82;;;5.65;;
49540;SDS011;35432;43.566;1.398;2023-03-01T14:08:26;8.00;;;4.80;;
49540;SDS011;35432;43.566;1.398;2023-03-01T14:19:25;9.27;;;5.30;;
49540;SDS011;35432;43.566;1.398;2023-03-01T14:21:59;11.07;;;5.80;;
49540;SDS011;35432;43.566;1.398;2023-03-01T14:24:27;9.85;;;5.80;;
49540;SDS011;35432;43.566;1.398;2023-03-01T14:26:54;10.38;;;5.40;;
49540;SDS011;35432;43.566;1.398;2023-03-01T14:29:26;8.20;;;5.33;;
49540;SDS011;35432;43.566;1.398;2023-03-01T14:32:10;9.20;;;5.32;;
49540;SDS011;35432;43.566;1.398;2023-03-01T14:34:50;11.10;;;5.43;;
49540;SDS011;35432;43.566;1.398;2023-03-01T14:37:26;9.57;;;5.80;;
49540;SDS011;35432;43.566;1.398;2023-03-01T14:39:54;9.53;;;5.33;;
49540;SDS011;35432;43.566;1.398;2023-03-01T14:42:20;11.38;;;5.30;;
49540;SDS011;35432;43.566;1.398;2023-03-01T14:44:49;10.38;;;5.30;;
49540;SDS011;35432;43.566;1.398;2023-03-01T14:47:23;8.52;;;4.95;;
49540;SDS011;35432;43.566;1.398;2023-03-01T14:49:59;10.98;;;5.13;;
49540;SDS011;35432;43.566;1.398;2023-03-01T14:52:29;11.80;;;5.20;;
49540;SDS011;35432;43.566;1.398;2023-03-01T14:54:59;9.38;;;5.10;;
49540;SDS011;35432;43.566;1.398;2023-03-01T14:57:27;8.60;;;4.82;;
49540;SDS011;35432;43.566;1.398;2023-03-01T14:59:53;8.90;;;5.10;;
49540;SDS011;35432;43.566;1.398;2023-03-01T15:02:23;14.57;;;7.35;;
49540;SDS011;35432;43.566;1.398;2023-03-01T15:04:51;8.35;;;4.63;;
49540;SDS011;35432;43.566;1.398;2023-03-01T15:07:21;10.25;;;5.65;;
49540;SDS011;35432;43.566;1.398;2023-03-01T15:09:54;12.83;;;7.57;;
49540;SDS011;35432;43.566;1.398;2023-03-01T15:12:24;8.77;;;5.10;;
49540;SDS011;35432;43.566;1.398;2023-03-01T15:14:53;12.98;;;5.15;;
49540;SDS011;35432;43.566;1.398;2023-03-01T15:20:00;9.87;;;4.87;;
49540;SDS011;35432;43.566;1.398;2023-03-01T15:22:27;10.90;;;5.53;;
49540;SDS011;35432;43.566;1.398;2023-03-01T15:24:53;11.00;;;5.57;;
49540;SDS011;35432;43.566;1.398;2023-03-01T15:27:20;10.60;;;5.10;;
49540;SDS011;35432;43.566;1.398;2023-03-01T15:29:49;10.88;;;5.38;;
49540;SDS011;35432;43.566;1.398;2023-03-01T15:32:28;15.15;;;8.35;;
49540;SDS011;35432;43.566;1.398;2023-03-01T15:34:55;13.45;;;6.68;;
49540;SDS011;35432;43.566;1.398;2023-03-01T15:40:31;10.52;;;5.45;;
49540;SDS011;35432;43.566;1.398;2023-03-01T15:43:00;9.82;;;4.82;;
49540;SDS011;35432;43.566;1.398;2023-03-01T15:45:29;9.02;;;5.10;;
49540;SDS011;35432;43.566;1.398;2023-03-01T15:48:01;10.43;;;5.07;;
49540;SDS011;35432;43.566;1.398;2023-03-01T15:50:30;9.00;;;4.95;;
49540;SDS011;35432;43.566;1.398;2023-03-01T15:52:59;9.35;;;5.30;;
49540;SDS011;35432;43.566;1.398;2023-03-01T15:55:27;11.88;;;5.35;;
49540;SDS011;35432;43.566;1.398;2023-03-01T15:58:12;12.13;;;4.70;;
49540;SDS011;35432;43.566;1.398;2023-03-01T16:00:40;11.33;;;5.20;;
49540;SDS011;35432;43.566;1.398;2023-03-01T16:03:06;9.13;;;4.65;;
49540;SDS011;35432;43.566;1.398;2023-03-01T16:05:33;8.88;;;5.07;;
49540;SDS011;35432;43.566;1.398;2023-03-01T16:08:00;11.47;;;5.10;;
49540;SDS011;35432;43.566;1.398;2023-03-01T16:10:25;9.77;;;5.00;;
49540;SDS011;35432;43.566;1.398;2023-03-01T16:12:51;10.45;;;5.57;;
49540;SDS011;35432;43.566;1.398;2023-03-01T16:15:30;10.87;;;5.27;;
49540;SDS011;35432;43.566;1.398;2023-03-01T16:18:01;9.88;;;5.25;;
49540;SDS011;35432;43.566;1.398;2023-03-01T16:20:27;14.70;;;5.53;;
49540;SDS011;35432;43.566;1.398;2023-03-01T16:22:54;10.02;;;5.05;;
49540;SDS011;35432;43.566;1.398;2023-03-01T16:25:23;10.48;;;5.10;;
49540;SDS011;35432;43.566;1.398;2023-03-01T16:27:49;9.33;;;5.23;;
49540;SDS011;35432;43.566;1.398;2023-03-01T16:30:17;9.95;;;5.30;;
49540;SDS011;35432;43.566;1.398;2023-03-01T16:32:44;8.87;;;4.63;;